createdAt,value
2017-06-23T00:00:16.100Z,19.86
2017-06-23T00:00:56.983Z,19.86
2017-06-23T00:01:37.874Z,19.69
2017-06-23T00:02:18.768Z,19.71
2017-06-23T00:02:59.654Z,19.71
2017-06-23T00:03:40.534Z,19.66
2017-06-23T00:04:21.428Z,19.67
2017-06-23T00:05:02.330Z,19.74
2017-06-23T00:05:43.230Z,19.67
2017-06-23T00:06:24.120Z,19.73
2017-06-23T00:07:05.001Z,19.66
2017-06-23T00:07:45.883Z,19.67
2017-06-23T00:08:26.822Z,19.73
2017-06-23T00:09:07.712Z,19.76
2017-06-23T00:09:48.578Z,19.69
2017-06-23T00:10:29.495Z,19.73
2017-06-23T00:11:10.379Z,19.74
2017-06-23T00:11:51.269Z,19.74
2017-06-23T00:12:32.167Z,19.67
2017-06-23T00:13:13.045Z,19.63
2017-06-23T00:13:53.934Z,19.63
2017-06-23T00:14:34.830Z,19.66
2017-06-23T00:15:15.724Z,19.52
2017-06-23T00:15:56.610Z,19.55
2017-06-23T00:16:37.506Z,19.58
2017-06-23T00:17:18.397Z,19.55
2017-06-23T00:17:59.274Z,19.63
2017-06-23T00:18:40.243Z,19.63
2017-06-23T00:19:21.134Z,19.58
2017-06-23T00:20:02.036Z,19.64
2017-06-23T00:20:42.925Z,19.62
2017-06-23T00:21:23.819Z,19.62
2017-06-23T00:22:04.705Z,19.66
2017-06-23T00:22:45.605Z,19.67
2017-06-23T00:23:26.506Z,19.67
2017-06-23T00:24:07.398Z,19.66
2017-06-23T00:24:48.280Z,19.54
2017-06-23T00:25:29.189Z,19.54
2017-06-23T00:26:10.068Z,19.66
2017-06-23T00:26:50.957Z,19.64
2017-06-23T00:27:31.850Z,19.64
2017-06-23T00:28:12.740Z,19.58
2017-06-23T00:28:53.631Z,19.62
2017-06-23T00:29:34.541Z,19.64
2017-06-23T00:30:15.418Z,19.59
2017-06-23T00:30:56.319Z,19.66
2017-06-23T00:31:37.214Z,19.55
2017-06-23T00:32:18.097Z,19.52
2017-06-23T00:32:58.983Z,19.54
2017-06-23T00:33:39.868Z,19.56
2017-06-23T00:34:20.768Z,19.52
2017-06-23T00:35:01.657Z,19.54
2017-06-23T00:35:42.547Z,19.62
2017-06-23T00:36:23.434Z,19.49
2017-06-23T00:37:04.315Z,19.51
2017-06-23T00:37:45.201Z,19.4
2017-06-23T00:38:26.095Z,19.37
2017-06-23T00:39:06.982Z,19.37
2017-06-23T00:40:46.368Z,19.34
2017-06-23T00:41:27.254Z,19.34
2017-06-23T00:42:08.130Z,19.41
2017-06-23T00:42:49.026Z,19.33
2017-06-23T00:43:29.919Z,19.3
2017-06-23T00:44:10.800Z,19.27
2017-06-23T00:44:51.695Z,19.29
2017-06-23T00:45:32.578Z,19.27
2017-06-23T00:46:13.527Z,19.26
2017-06-23T00:46:54.372Z,19.29
2017-06-23T00:47:35.283Z,19.26
2017-06-23T00:48:16.154Z,19.24
2017-06-23T00:48:57.050Z,19.34
2017-06-23T00:49:37.949Z,19.26
2017-06-23T00:50:18.837Z,19.33
2017-06-23T00:50:59.728Z,19.26
2017-06-23T00:51:40.622Z,19.24
2017-06-23T00:52:21.511Z,19.27
2017-06-23T00:53:02.396Z,19.29
2017-06-23T00:53:43.295Z,19.31
2017-06-23T00:54:24.184Z,19.31
2017-06-23T00:55:05.074Z,19.34
2017-06-23T00:55:45.977Z,19.39
2017-06-23T00:56:26.859Z,19.3
2017-06-23T00:57:07.746Z,19.26
2017-06-23T00:57:48.628Z,19.27
2017-06-23T00:58:29.519Z,19.22
2017-06-23T00:59:10.406Z,19.27
2017-06-23T00:59:51.309Z,19.36
2017-06-23T01:00:32.205Z,19.24
2017-06-23T01:01:13.100Z,19.36
2017-06-23T01:01:54.003Z,19.29
2017-06-23T01:02:34.888Z,19.27
2017-06-23T01:03:15.771Z,19.3
2017-06-23T01:03:56.662Z,19.21
2017-06-23T01:04:37.549Z,19.21
2017-06-23T01:05:18.444Z,19.31
2017-06-23T01:05:59.338Z,19.3
2017-06-23T01:06:40.214Z,19.39
2017-06-23T01:07:21.130Z,19.33
2017-06-23T01:08:02.016Z,19.33
2017-06-23T01:08:42.900Z,19.27
2017-06-23T01:09:23.796Z,19.27
2017-06-23T01:10:04.694Z,19.18
2017-06-23T01:10:45.581Z,19.26
2017-06-23T01:11:26.461Z,19.26
2017-06-23T01:12:07.349Z,19.24
2017-06-23T01:12:48.250Z,19.27
2017-06-23T01:13:29.135Z,19.27
2017-06-23T01:14:10.034Z,19.09
2017-06-23T01:14:50.927Z,19.31
2017-06-23T01:15:31.826Z,19.27
2017-06-23T01:16:12.728Z,19.4
2017-06-23T01:16:53.610Z,19.64
2017-06-23T01:17:34.509Z,19.86
2017-06-23T01:18:15.408Z,19.89
2017-06-23T01:18:56.297Z,19.81
2017-06-23T01:19:37.194Z,19.51
2017-06-23T01:20:18.088Z,19.63
2017-06-23T01:20:58.970Z,19.59
2017-06-23T01:21:39.853Z,19.45
2017-06-23T01:22:20.747Z,19.45
2017-06-23T01:23:01.635Z,19.44
2017-06-23T01:23:42.531Z,19.51
2017-06-23T01:24:23.417Z,19.49
2017-06-23T01:25:04.299Z,19.44
2017-06-23T01:25:45.186Z,19.51
2017-06-23T01:26:26.076Z,19.55
2017-06-23T01:27:06.987Z,19.82
2017-06-23T01:27:47.861Z,19.91
2017-06-23T01:28:28.765Z,19.73
2017-06-23T01:29:09.656Z,19.66
2017-06-23T01:29:50.555Z,19.51
2017-06-23T01:30:31.444Z,19.54
2017-06-23T01:31:12.332Z,19.41
2017-06-23T01:31:53.206Z,19.39
2017-06-23T01:32:34.093Z,19.39
2017-06-23T01:33:14.973Z,19.37
2017-06-23T01:33:55.853Z,19.31
2017-06-23T01:34:36.744Z,19.26
2017-06-23T01:35:17.641Z,19.34
2017-06-23T01:35:58.529Z,19.21
2017-06-23T01:36:39.423Z,19.12
2017-06-23T01:37:20.310Z,18.9
2017-06-23T01:38:01.203Z,18.86
2017-06-23T01:38:42.083Z,18.7
2017-06-23T01:39:22.987Z,18.7
2017-06-23T01:40:03.878Z,18.62
2017-06-23T01:40:44.752Z,18.71
2017-06-23T01:41:25.638Z,18.59
2017-06-23T01:42:06.543Z,18.62
2017-06-23T01:42:47.421Z,18.49
2017-06-23T01:43:28.298Z,18.49
2017-06-23T01:44:09.169Z,18.49
2017-06-23T01:44:50.058Z,18.71
2017-06-23T01:45:30.940Z,18.62
2017-06-23T01:46:11.828Z,18.75
2017-06-23T01:46:52.730Z,18.84
2017-06-23T01:47:33.618Z,19.19
2017-06-23T01:48:14.508Z,19.04
2017-06-23T01:48:55.408Z,19.22
2017-06-23T01:49:36.307Z,19.09
2017-06-23T01:50:17.193Z,19.11
2017-06-23T01:50:58.084Z,19.15
2017-06-23T01:51:38.976Z,19.29
2017-06-23T01:52:19.868Z,19.3
2017-06-23T01:53:00.749Z,19.14
2017-06-23T01:53:41.642Z,19.33
2017-06-23T01:54:22.530Z,19.29
2017-06-23T01:55:03.431Z,19.24
2017-06-23T01:55:44.293Z,19.34
2017-06-23T01:56:25.180Z,19.34
2017-06-23T01:57:06.064Z,19.34
2017-06-23T01:57:46.947Z,19.36
2017-06-23T01:58:27.834Z,19.19
2017-06-23T01:59:08.730Z,19.12
2017-06-23T01:59:49.627Z,18.9
2017-06-23T02:00:30.510Z,18.98
2017-06-23T02:01:11.408Z,18.86
2017-06-23T02:01:52.282Z,18.83
2017-06-23T02:02:33.181Z,18.83
2017-06-23T02:03:14.067Z,18.71
2017-06-23T02:03:54.949Z,18.78
2017-06-23T02:04:35.837Z,18.63
2017-06-23T02:05:16.725Z,18.75
2017-06-23T02:05:57.625Z,18.9
2017-06-23T02:06:38.514Z,19.47
2017-06-23T02:07:19.401Z,19.27
2017-06-23T02:08:00.294Z,19.26
2017-06-23T02:08:41.164Z,19.14
2017-06-23T02:09:22.051Z,19.07
2017-06-23T02:10:02.950Z,19.15
2017-06-23T02:10:43.841Z,19.08
2017-06-23T02:11:24.752Z,18.95
2017-06-23T02:12:05.640Z,18.89
2017-06-23T02:12:46.516Z,18.84
2017-06-23T02:13:27.414Z,18.74
2017-06-23T02:14:08.306Z,18.65
2017-06-23T02:14:49.182Z,18.59
2017-06-23T02:15:30.070Z,18.55
2017-06-23T02:16:10.968Z,18.55
2017-06-23T02:16:51.857Z,18.52
2017-06-23T02:17:32.747Z,18.5
2017-06-23T02:18:13.637Z,18.49
2017-06-23T02:18:54.521Z,18.55
2017-06-23T02:19:35.419Z,18.52
2017-06-23T02:20:16.313Z,18.58
2017-06-23T02:20:57.210Z,18.47
2017-06-23T02:21:38.101Z,18.44
2017-06-23T02:22:18.990Z,18.58
2017-06-23T02:22:59.878Z,18.5
2017-06-23T02:23:40.768Z,18.52
2017-06-23T02:24:21.660Z,18.56
2017-06-23T02:25:02.570Z,18.56
2017-06-23T02:25:43.426Z,18.92
2017-06-23T02:26:24.316Z,18.7
2017-06-23T02:27:05.216Z,18.74
2017-06-23T02:27:46.093Z,18.71
2017-06-23T02:28:26.985Z,18.73
2017-06-23T02:29:07.876Z,18.78
2017-06-23T02:29:48.766Z,18.92
2017-06-23T02:30:29.628Z,18.84
2017-06-23T02:31:10.542Z,18.8
2017-06-23T02:31:51.427Z,18.7
2017-06-23T02:32:32.316Z,18.81
2017-06-23T02:33:13.209Z,18.81
2017-06-23T02:33:54.104Z,18.88
2017-06-23T02:34:34.993Z,18.71
2017-06-23T02:35:15.898Z,18.74
2017-06-23T02:35:56.775Z,18.8
2017-06-23T02:36:37.665Z,18.92
2017-06-23T02:37:18.563Z,18.95
2017-06-23T02:37:59.452Z,18.89
2017-06-23T02:38:40.335Z,18.9
2017-06-23T02:39:21.222Z,18.96
2017-06-23T02:40:02.114Z,18.78
2017-06-23T02:40:43.006Z,18.8
2017-06-23T02:41:23.927Z,18.77
2017-06-23T02:42:04.808Z,18.74
2017-06-23T02:42:45.713Z,18.8
2017-06-23T02:43:26.601Z,18.77
2017-06-23T02:44:07.482Z,18.74
2017-06-23T02:44:48.370Z,18.58
2017-06-23T02:45:29.270Z,18.71
2017-06-23T02:46:10.154Z,18.8
2017-06-23T02:46:51.046Z,18.78
2017-06-23T02:47:31.943Z,18.77
2017-06-23T02:48:12.836Z,18.88
2017-06-23T02:48:53.720Z,18.81
2017-06-23T02:49:34.612Z,18.93
2017-06-23T02:50:15.499Z,18.92
2017-06-23T02:50:56.398Z,18.95
2017-06-23T02:51:37.273Z,18.92
2017-06-23T02:52:18.164Z,18.95
2017-06-23T02:52:59.056Z,19
2017-06-23T02:53:39.949Z,18.89
2017-06-23T02:54:20.848Z,19.07
2017-06-23T02:55:01.730Z,18.96
2017-06-23T02:55:42.605Z,19.02
2017-06-23T02:56:23.486Z,19.09
2017-06-23T02:57:04.366Z,19.02
2017-06-23T02:57:45.247Z,18.83
2017-06-23T02:58:26.137Z,18.74
2017-06-23T02:59:07.065Z,18.81
2017-06-23T02:59:47.947Z,18.86
2017-06-23T03:00:28.830Z,18.78
2017-06-23T03:01:09.717Z,18.84
2017-06-23T03:01:50.599Z,18.92
2017-06-23T03:02:31.491Z,18.8
2017-06-23T03:03:12.370Z,18.73
2017-06-23T03:03:53.276Z,18.78
2017-06-23T03:04:34.151Z,18.78
2017-06-23T03:05:15.037Z,18.8
2017-06-23T03:05:55.929Z,18.86
2017-06-23T03:06:36.825Z,18.88
2017-06-23T03:07:17.718Z,18.88
2017-06-23T03:07:58.611Z,18.88
2017-06-23T03:08:39.501Z,18.84
2017-06-23T03:09:20.392Z,18.88
2017-06-23T03:10:01.296Z,18.86
2017-06-23T03:10:42.207Z,18.86
2017-06-23T03:11:23.094Z,18.89
2017-06-23T03:12:03.982Z,18.9
2017-06-23T03:12:44.892Z,18.95
2017-06-23T03:13:25.792Z,18.98
2017-06-23T03:14:06.682Z,18.95
2017-06-23T03:14:47.575Z,18.98
2017-06-23T03:15:28.470Z,18.95
2017-06-23T03:16:09.359Z,18.89
2017-06-23T03:17:27.218Z,18.95
2017-06-23T03:18:08.117Z,18.95
2017-06-23T03:18:49.010Z,18.95
2017-06-23T03:19:29.905Z,18.96
2017-06-23T03:20:10.802Z,19.07
2017-06-23T03:20:51.691Z,19.02
2017-06-23T03:21:32.608Z,19
2017-06-23T03:22:13.520Z,19.04
2017-06-23T03:22:54.398Z,18.96
2017-06-23T03:23:35.291Z,18.96
2017-06-23T03:24:16.198Z,18.95
2017-06-23T03:24:57.091Z,18.96
2017-06-23T03:25:37.979Z,19
2017-06-23T03:26:18.865Z,18.92
2017-06-23T03:26:59.753Z,18.99
2017-06-23T03:27:40.644Z,19.11
2017-06-23T03:28:21.527Z,19.07
2017-06-23T03:29:02.413Z,19.15
2017-06-23T03:29:43.287Z,19.15
2017-06-23T03:30:24.182Z,19.29
2017-06-23T03:31:05.061Z,19.22
2017-06-23T03:31:45.951Z,19.27
2017-06-23T03:32:26.839Z,19.26
2017-06-23T03:33:07.726Z,19.26
2017-06-23T03:33:48.624Z,19.24
2017-06-23T03:34:29.513Z,19.16
2017-06-23T03:35:10.409Z,19.44
2017-06-23T03:35:51.307Z,19.49
2017-06-23T03:36:32.197Z,19.48
2017-06-23T03:37:13.079Z,19.41
2017-06-23T03:37:53.976Z,19.39
2017-06-23T03:38:34.870Z,19.24
2017-06-23T03:39:15.758Z,19.34
2017-06-23T03:39:56.653Z,19.21
2017-06-23T03:40:37.529Z,19.31
2017-06-23T03:41:18.430Z,19.29
2017-06-23T03:41:59.308Z,19.29
2017-06-23T03:42:40.212Z,19.19
2017-06-23T03:43:21.093Z,19.24
2017-06-23T03:44:01.976Z,19.3
2017-06-23T03:44:42.859Z,19.52
2017-06-23T03:45:23.744Z,19.45
2017-06-23T03:46:04.637Z,19.54
2017-06-23T03:46:45.516Z,19.45
2017-06-23T03:47:26.411Z,19.52
2017-06-23T03:48:07.304Z,19.52
2017-06-23T03:48:48.190Z,19.52
2017-06-23T03:49:29.097Z,19.47
2017-06-23T03:50:09.977Z,19.54
2017-06-23T03:50:50.869Z,19.44
2017-06-23T03:51:31.751Z,19.45
2017-06-23T03:52:12.635Z,19.47
2017-06-23T03:52:53.531Z,19.51
2017-06-23T03:54:11.380Z,19.66
2017-06-23T03:54:52.277Z,19.74
2017-06-23T03:55:33.180Z,19.74
2017-06-23T03:56:14.071Z,19.84
2017-06-23T03:56:54.951Z,19.74
2017-06-23T03:57:35.830Z,19.85
2017-06-23T03:58:16.724Z,19.79
2017-06-23T03:58:57.623Z,19.81
2017-06-23T03:59:38.510Z,19.84
2017-06-23T04:00:19.425Z,19.82
2017-06-23T04:01:00.315Z,19.79
2017-06-23T04:01:41.214Z,19.76
2017-06-23T04:02:22.102Z,19.74
2017-06-23T04:03:02.999Z,19.85
2017-06-23T04:03:43.896Z,19.7
2017-06-23T04:04:24.781Z,19.64
2017-06-23T04:05:05.659Z,19.76
2017-06-23T04:05:46.544Z,19.71
2017-06-23T04:06:27.448Z,19.84
2017-06-23T04:07:08.335Z,19.84
2017-06-23T04:07:49.225Z,19.91
2017-06-23T04:08:30.117Z,20.07
2017-06-23T04:09:11.034Z,20.03
2017-06-23T04:09:52.767Z,20.03
2017-06-23T04:10:33.668Z,20.02
2017-06-23T04:11:14.547Z,19.99
2017-06-23T04:11:55.466Z,19.88
2017-06-23T04:12:36.319Z,19.92
2017-06-23T04:13:17.212Z,19.86
2017-06-23T04:13:58.100Z,19.85
2017-06-23T04:14:39.000Z,19.63
2017-06-23T04:15:19.888Z,19.45
2017-06-23T04:16:00.779Z,19.45
2017-06-23T04:16:41.664Z,19.58
2017-06-23T04:17:22.550Z,19.64
2017-06-23T04:18:03.446Z,19.67
2017-06-23T04:18:44.351Z,19.7
2017-06-23T04:19:25.255Z,19.86
2017-06-23T04:20:06.124Z,19.82
2017-06-23T04:20:47.021Z,19.7
2017-06-23T04:21:27.903Z,19.86
2017-06-23T04:22:08.830Z,19.84
2017-06-23T04:22:49.714Z,19.81
2017-06-23T04:23:30.604Z,19.79
2017-06-23T04:24:11.480Z,19.64
2017-06-23T04:24:52.371Z,19.92
2017-06-23T04:25:33.277Z,19.79
2017-06-23T04:26:14.171Z,19.95
2017-06-23T04:26:55.053Z,19.95
2017-06-23T04:27:35.934Z,19.92
2017-06-23T04:28:16.820Z,19.92
2017-06-23T04:28:57.716Z,19.99
2017-06-23T04:29:38.607Z,20.03
2017-06-23T04:30:19.492Z,19.84
2017-06-23T04:31:00.370Z,19.49
2017-06-23T04:31:41.286Z,19.48
2017-06-23T04:32:22.188Z,19.54
2017-06-23T04:33:03.079Z,19.7
2017-06-23T04:33:43.982Z,19.74
2017-06-23T04:34:24.841Z,19.7
2017-06-23T04:35:05.710Z,19.62
2017-06-23T04:35:46.611Z,19.45
2017-06-23T04:36:27.494Z,19.45
2017-06-23T04:37:08.401Z,19.4
2017-06-23T04:39:02.015Z,19.52
2017-06-23T04:39:42.903Z,19.64
2017-06-23T04:40:23.804Z,19.51
2017-06-23T04:41:04.692Z,19.48
2017-06-23T04:41:45.580Z,19.59
2017-06-23T04:42:26.484Z,19.63
2017-06-23T04:43:07.371Z,19.51
2017-06-23T04:43:48.275Z,19.52
2017-06-23T04:44:29.166Z,19.62
2017-06-23T04:45:10.064Z,19.71
2017-06-23T04:45:50.980Z,19.66
2017-06-23T04:46:31.866Z,19.52
2017-06-23T04:47:12.776Z,19.48
2017-06-23T04:47:53.664Z,19.52
2017-06-23T04:48:34.546Z,19.67
2017-06-23T04:49:15.446Z,19.54
2017-06-23T04:49:56.335Z,19.66
2017-06-23T04:50:37.215Z,19.52
2017-06-23T04:51:18.123Z,19.59
2017-06-23T04:51:59.011Z,19.52
2017-06-23T04:52:39.895Z,19.55
2017-06-23T04:53:20.777Z,19.54
2017-06-23T04:54:01.666Z,19.52
2017-06-23T04:54:42.560Z,19.55
2017-06-23T04:55:23.451Z,19.51
2017-06-23T04:56:04.334Z,19.51
2017-06-23T04:56:45.221Z,19.69
2017-06-23T04:57:26.103Z,19.66
2017-06-23T04:58:06.999Z,19.54
2017-06-23T04:58:47.895Z,19.51
2017-06-23T04:59:28.782Z,19.47
2017-06-23T05:00:09.673Z,19.58
2017-06-23T05:00:50.550Z,19.49
2017-06-23T05:01:31.460Z,19.41
2017-06-23T05:02:12.422Z,19.37
2017-06-23T05:02:53.321Z,19.3
2017-06-23T05:03:34.207Z,19.45
2017-06-23T05:04:15.156Z,19.64
2017-06-23T05:04:56.096Z,19.56
2017-06-23T05:05:37.026Z,19.7
2017-06-23T05:06:17.920Z,19.67
2017-06-23T05:06:58.808Z,19.56
2017-06-23T05:07:39.699Z,19.34
2017-06-23T05:08:20.602Z,19.31
2017-06-23T05:09:01.485Z,19.34
2017-06-23T05:09:42.392Z,19.22
2017-06-23T05:10:23.283Z,19.19
2017-06-23T05:11:04.152Z,19.33
2017-06-23T05:11:45.050Z,19.4
2017-06-23T05:12:25.964Z,19.34
2017-06-23T05:13:06.892Z,19.33
2017-06-23T05:13:47.762Z,19.34
2017-06-23T05:14:28.689Z,19.33
2017-06-23T05:15:09.569Z,19.26
2017-06-23T05:15:50.463Z,19.14
2017-06-23T05:16:31.363Z,19.29
2017-06-23T05:17:12.362Z,19.29
2017-06-23T05:17:53.237Z,19.22
2017-06-23T05:18:34.150Z,19.09
2017-06-23T05:19:15.034Z,19.07
2017-06-23T05:19:55.912Z,19.08
2017-06-23T05:20:36.818Z,19.04
2017-06-23T05:21:17.709Z,19.07
2017-06-23T05:21:58.596Z,19.11
2017-06-23T05:22:39.480Z,19.24
2017-06-23T05:23:20.373Z,19.26
2017-06-23T05:24:01.287Z,19.24
2017-06-23T05:24:43.725Z,19.29
2017-06-23T05:25:24.614Z,19.27
2017-06-23T05:26:05.505Z,19.08
2017-06-23T05:26:46.395Z,19.15
2017-06-23T05:27:27.268Z,19.09
2017-06-23T05:28:08.162Z,19.11
2017-06-23T05:28:49.044Z,19.26
2017-06-23T05:29:29.949Z,19.26
2017-06-23T05:30:10.836Z,19.27
2017-06-23T05:30:51.739Z,19.15
2017-06-23T05:31:34.588Z,19.19
2017-06-23T05:32:15.477Z,19.19
2017-06-23T05:32:56.364Z,19.29
2017-06-23T05:33:37.264Z,19.27
2017-06-23T05:34:18.152Z,19.33
2017-06-23T05:34:59.113Z,19.34
2017-06-23T05:35:39.997Z,19.22
2017-06-23T05:36:20.881Z,19.26
2017-06-23T05:37:01.820Z,19.31
2017-06-23T05:37:42.701Z,19.29
2017-06-23T05:38:23.584Z,19.27
2017-06-23T05:39:04.488Z,19.22
2017-06-23T05:39:45.375Z,19.27
2017-06-23T05:40:26.252Z,19.19
2017-06-23T05:41:07.147Z,19.21
2017-06-23T05:41:48.028Z,19.16
2017-06-23T05:42:28.923Z,19.16
2017-06-23T05:43:09.801Z,19.26
2017-06-23T05:43:50.698Z,19.29
2017-06-23T05:44:31.584Z,19.27
2017-06-23T05:45:12.469Z,19.29
2017-06-23T05:45:53.357Z,19.26
2017-06-23T05:46:34.242Z,19.18
2017-06-23T05:47:15.126Z,19.3
2017-06-23T05:47:56.019Z,19.22
2017-06-23T05:48:36.957Z,19.3
2017-06-23T05:49:17.822Z,19.24
2017-06-23T05:49:58.726Z,19.08
2017-06-23T05:50:39.603Z,19.16
2017-06-23T05:51:20.497Z,19.12
2017-06-23T05:52:01.370Z,19.12
2017-06-23T05:52:42.272Z,19.14
2017-06-23T05:53:23.158Z,19.12
2017-06-23T05:54:04.039Z,19.12
2017-06-23T05:54:44.937Z,19.15
2017-06-23T05:55:25.825Z,19.12
2017-06-23T05:56:06.716Z,19.08
2017-06-23T05:56:47.606Z,19.04
2017-06-23T05:57:28.494Z,19.24
2017-06-23T05:58:09.390Z,19.15
2017-06-23T05:58:50.297Z,19.14
2017-06-23T05:59:31.184Z,19.15
2017-06-23T06:00:12.112Z,19.3
2017-06-23T06:00:53.010Z,19.15
2017-06-23T06:01:33.882Z,19.16
2017-06-23T06:02:14.846Z,19.19
2017-06-23T06:02:55.736Z,19.09
2017-06-23T06:03:36.618Z,19.14
2017-06-23T06:04:17.504Z,19.11
2017-06-23T06:04:58.430Z,19.11
2017-06-23T06:05:39.318Z,18.93
2017-06-23T06:06:20.198Z,18.96
2017-06-23T06:07:01.088Z,19.02
2017-06-23T06:07:41.981Z,19.07
2017-06-23T06:08:22.995Z,18.99
2017-06-23T06:09:05.597Z,19.14
2017-06-23T06:09:46.491Z,19.15
2017-06-23T06:10:27.373Z,19.11
2017-06-23T06:11:08.264Z,18.99
2017-06-23T06:11:49.152Z,19.07
2017-06-23T06:12:30.048Z,19.12
2017-06-23T06:13:10.909Z,19.02
2017-06-23T06:13:53.753Z,19.07
2017-06-23T06:14:34.644Z,19.08
2017-06-23T06:15:15.588Z,19.07
2017-06-23T06:15:56.515Z,19.11
2017-06-23T06:16:37.401Z,19.24
2017-06-23T06:18:10.759Z,19.19
2017-06-23T06:18:51.636Z,19.29
2017-06-23T06:19:32.533Z,19.27
2017-06-23T06:20:13.416Z,19.27
2017-06-23T06:20:54.309Z,19.29
2017-06-23T06:21:35.186Z,19.16
2017-06-23T06:22:16.069Z,19.21
2017-06-23T06:22:56.954Z,19.21
2017-06-23T06:23:37.840Z,19.24
2017-06-23T06:24:18.719Z,19.24
2017-06-23T06:24:59.621Z,19.3
2017-06-23T06:25:40.501Z,19.31
2017-06-23T06:27:08.964Z,19.37
2017-06-23T06:27:49.842Z,19.41
2017-06-23T06:28:30.758Z,19.4
2017-06-23T06:29:11.620Z,19.44
2017-06-23T06:29:52.518Z,19.41
2017-06-23T06:30:33.409Z,19.39
2017-06-23T06:31:14.330Z,19.49
2017-06-23T06:31:55.221Z,19.49
2017-06-23T06:32:36.131Z,19.44
2017-06-23T06:33:17.009Z,19.29
2017-06-23T06:33:57.901Z,19.3
2017-06-23T06:34:38.786Z,19.29
2017-06-23T06:35:19.681Z,19.29
2017-06-23T06:36:00.629Z,19.29
2017-06-23T06:36:41.495Z,19.34
2017-06-23T06:37:22.425Z,19.41
2017-06-23T06:38:03.273Z,19.3
2017-06-23T06:38:44.152Z,19.36
2017-06-23T06:39:25.040Z,19.37
2017-06-23T06:40:05.933Z,19.39
2017-06-23T06:40:46.829Z,19.36
2017-06-23T06:41:27.762Z,19.29
2017-06-23T06:42:08.633Z,19.31
2017-06-23T06:42:49.514Z,19.39
2017-06-23T06:43:30.428Z,19.58
2017-06-23T06:44:11.320Z,19.64
2017-06-23T06:44:52.191Z,19.7
2017-06-23T06:45:33.107Z,19.56
2017-06-23T06:46:13.993Z,19.48
2017-06-23T06:46:54.885Z,19.44
2017-06-23T06:47:35.777Z,19.44
2017-06-23T06:48:16.672Z,19.54
2017-06-23T06:48:57.555Z,19.45
2017-06-23T06:49:38.452Z,19.48
2017-06-23T06:50:19.338Z,19.54
2017-06-23T06:51:37.218Z,19.62
2017-06-23T06:52:18.104Z,19.7
2017-06-23T06:52:59.007Z,19.81
2017-06-23T06:53:39.890Z,19.86
2017-06-23T06:54:20.779Z,19.86
2017-06-23T06:55:01.681Z,19.89
2017-06-23T06:55:42.573Z,19.7
2017-06-23T06:56:23.471Z,19.41
2017-06-23T06:57:04.361Z,19.4
2017-06-23T06:57:45.248Z,19.31
2017-06-23T06:58:26.148Z,19.33
2017-06-23T06:59:07.033Z,19.24
2017-06-23T06:59:47.921Z,19.33
2017-06-23T07:00:28.815Z,19.31
2017-06-23T07:01:09.709Z,19.31
2017-06-23T07:01:50.595Z,19.29
2017-06-23T07:02:31.476Z,19.19
2017-06-23T07:03:12.361Z,19.12
2017-06-23T07:03:53.243Z,19.22
2017-06-23T07:04:34.135Z,19.12
2017-06-23T07:05:15.014Z,19.16
2017-06-23T07:05:55.914Z,19.34
2017-06-23T07:06:36.800Z,19.14
2017-06-23T07:07:17.660Z,19.24
2017-06-23T07:07:58.544Z,19.19
2017-06-23T07:08:39.434Z,19.11
2017-06-23T07:09:20.324Z,19.09
2017-06-23T07:10:01.244Z,19.36
2017-06-23T07:10:42.149Z,19.3
2017-06-23T07:11:23.084Z,19.24
2017-06-23T07:12:03.973Z,19.3
2017-06-23T07:12:44.872Z,19.31
2017-06-23T07:13:25.745Z,19.29
2017-06-23T07:14:06.655Z,19.24
2017-06-23T07:14:47.546Z,19.29
2017-06-23T07:15:28.423Z,19.27
2017-06-23T07:16:09.307Z,19.21
2017-06-23T07:16:50.214Z,19.33
2017-06-23T07:17:31.091Z,19.31
2017-06-23T07:18:11.962Z,19.27
2017-06-23T07:18:52.864Z,19.3
2017-06-23T07:19:33.748Z,19.37
2017-06-23T07:21:07.077Z,19.36
2017-06-23T07:21:47.965Z,19.29
2017-06-23T07:22:28.873Z,19.26
2017-06-23T07:23:09.740Z,19.33
2017-06-23T07:23:50.628Z,19.21
2017-06-23T07:24:31.517Z,19.4
2017-06-23T07:25:12.412Z,19.39
2017-06-23T07:25:53.284Z,19.48
2017-06-23T07:26:34.167Z,19.47
2017-06-23T07:27:15.061Z,19.62
2017-06-23T07:27:55.962Z,19.69
2017-06-23T07:28:36.854Z,19.7
2017-06-23T07:29:17.743Z,19.51
2017-06-23T07:29:58.631Z,19.48
2017-06-23T07:30:39.521Z,19.3
2017-06-23T07:31:20.421Z,19.48
2017-06-23T07:32:01.314Z,19.41
2017-06-23T07:32:42.196Z,19.47
2017-06-23T07:33:23.126Z,19.45
2017-06-23T07:34:04.014Z,19.52
2017-06-23T07:34:44.907Z,19.44
2017-06-23T07:35:25.798Z,19.54
2017-06-23T07:36:06.676Z,19.52
2017-06-23T07:36:47.616Z,19.44
2017-06-23T07:37:28.505Z,19.52
2017-06-23T07:38:09.388Z,19.66
2017-06-23T07:38:50.333Z,19.59
2017-06-23T07:39:31.198Z,19.67
2017-06-23T07:40:12.086Z,19.77
2017-06-23T07:40:53.025Z,19.81
2017-06-23T07:42:23.033Z,19.91
2017-06-23T07:43:03.950Z,19.81
2017-06-23T07:43:44.832Z,19.76
2017-06-23T07:44:25.729Z,19.7
2017-06-23T07:45:06.621Z,19.67
2017-06-23T07:45:47.520Z,19.54
2017-06-23T07:46:28.423Z,19.7
2017-06-23T07:47:09.319Z,19.71
2017-06-23T07:47:50.206Z,19.52
2017-06-23T07:48:31.093Z,19.58
2017-06-23T07:49:11.976Z,19.44
2017-06-23T07:49:52.881Z,19.39
2017-06-23T07:50:33.771Z,19.3
2017-06-23T07:51:14.670Z,19.3
2017-06-23T07:51:55.557Z,19.55
2017-06-23T07:52:36.445Z,19.63
2017-06-23T07:53:17.353Z,19.55
2017-06-23T07:53:58.244Z,19.56
2017-06-23T07:54:39.134Z,19.59
2017-06-23T07:55:20.021Z,19.58
2017-06-23T07:56:00.915Z,19.84
2017-06-23T07:56:41.821Z,19.99
2017-06-23T07:57:22.709Z,20.07
2017-06-23T07:58:03.592Z,20.14
2017-06-23T07:58:44.479Z,20.09
2017-06-23T07:59:25.372Z,20.07
2017-06-23T08:00:06.285Z,20.18
2017-06-23T08:00:47.164Z,20.18
2017-06-23T08:01:28.079Z,20.32
2017-06-23T08:02:08.970Z,20.11
2017-06-23T08:02:49.852Z,20.19
2017-06-23T08:03:30.730Z,20.26
2017-06-23T08:04:11.638Z,20.58
2017-06-23T08:04:52.524Z,20.62
2017-06-23T08:05:33.413Z,20.8
2017-06-23T08:06:14.309Z,20.55
2017-06-23T08:06:55.197Z,20.34
2017-06-23T08:07:36.076Z,20.28
2017-06-23T08:08:16.962Z,20.19
2017-06-23T08:08:57.857Z,20.29
2017-06-23T08:09:38.775Z,20.07
2017-06-23T08:10:19.685Z,20.26
2017-06-23T08:11:00.573Z,20.52
2017-06-23T08:11:41.483Z,20.48
2017-06-23T08:12:22.391Z,20.04
2017-06-23T08:13:03.297Z,20.18
2017-06-23T08:13:44.173Z,20.07
2017-06-23T08:14:25.074Z,20.18
2017-06-23T08:15:05.961Z,20.29
2017-06-23T08:15:46.858Z,20.51
2017-06-23T08:16:27.740Z,20.75
2017-06-23T08:17:08.619Z,20.77
2017-06-23T08:17:49.521Z,20.6
2017-06-23T08:18:30.420Z,20.95
2017-06-23T08:19:11.322Z,21.24
2017-06-23T08:19:52.218Z,21.12
2017-06-23T08:20:33.105Z,20.92
2017-06-23T08:21:13.999Z,20.81
2017-06-23T08:21:54.904Z,21.22
2017-06-23T08:22:35.790Z,21.4
2017-06-23T08:23:16.682Z,21.3
2017-06-23T08:23:57.585Z,21.42
2017-06-23T08:24:38.494Z,21.55
2017-06-23T08:25:19.393Z,22.1
2017-06-23T08:26:00.285Z,22.17
2017-06-23T08:26:41.193Z,22.18
2017-06-23T08:27:22.097Z,21.85
2017-06-23T08:28:02.987Z,22.23
2017-06-23T08:28:43.894Z,22.17
2017-06-23T08:29:24.805Z,22.29
2017-06-23T08:30:05.702Z,22.5
2017-06-23T08:30:46.592Z,22.54
2017-06-23T08:31:27.496Z,22.66
2017-06-23T08:32:08.412Z,22.7
2017-06-23T08:32:49.308Z,22.39
2017-06-23T08:33:30.207Z,22.96
2017-06-23T08:34:11.116Z,22.83
2017-06-23T08:34:52.008Z,22.69
2017-06-23T08:35:32.913Z,22.68
2017-06-23T08:36:13.832Z,22.83
2017-06-23T08:36:54.727Z,23.41
2017-06-23T08:37:35.621Z,23.51
2017-06-23T08:38:16.522Z,23.39
2017-06-23T08:38:57.401Z,23.08
2017-06-23T08:39:38.292Z,22.98
2017-06-23T08:40:19.200Z,23.05
2017-06-23T08:41:00.109Z,23.74
2017-06-23T08:41:41.017Z,23.39
2017-06-23T08:42:21.927Z,22.83
2017-06-23T08:43:02.841Z,22.84
2017-06-23T08:43:43.746Z,22.45
2017-06-23T08:44:24.655Z,22.98
2017-06-23T08:45:05.561Z,22.99
2017-06-23T08:45:46.468Z,23.55
2017-06-23T08:46:27.396Z,23.88
2017-06-23T08:47:08.806Z,24.11
2017-06-23T08:47:49.714Z,24.14
2017-06-23T08:48:30.619Z,23.83
2017-06-23T08:49:11.525Z,23.47
2017-06-23T08:49:52.418Z,23.58
2017-06-23T08:50:33.320Z,22.75
2017-06-23T08:51:14.217Z,21.98
2017-06-23T08:53:28.027Z,21.8
2017-06-23T08:54:08.941Z,21.96
2017-06-23T08:54:49.838Z,22.1
2017-06-23T08:55:30.746Z,22.39
2017-06-23T08:56:11.632Z,22.23
2017-06-23T08:56:53.483Z,22.45
2017-06-23T08:57:34.384Z,22.8